sensor_id;sensor_type;location;lat;lon;timestamp;pressure;altitude;pressure_sealevel;temperature;humidity
51245;BME280;37840;47.562;18.738;2023-07-20T00:02:00;99074.88;;;21.99;74.23
51245;BME280;37840;47.562;18.738;2023-07-20T00:04:28;99076.28;;;21.95;74.24
51245;BME280;37840;47.562;18.738;2023-07-20T00:06:54;99074.38;;;21.89;74.76
51245;BME280;37840;47.562;18.738;2023-07-20T00:09:20;99074.97;;;21.84;74.29
51245;BME280;37840;47.562;18.738;2023-07-20T00:11:50;99072.06;;;21.79;74.87
51245;BME280;37840;47.562;18.738;2023-07-20T00:14:17;99066.59;;;21.72;75.49
51245;BME280;37840;47.562;18.738;2023-07-20T00:16:47;99070.13;;;21.73;75.12
51245;BME280;37840;47.562;18.738;2023-07-20T00:19:17;99058.47;;;21.72;74.80
51245;BME280;37840;47.562;18.738;2023-07-20T00:21:43;99063.09;;;21.78;74.74
51245;BME280;37840;47.562;18.738;2023-07-20T00:24:09;99055.16;;;21.77;74.58
51245;BME280;37840;47.562;18.738;2023-07-20T00:26:35;99052.66;;;21.75;74.92
51245;BME280;37840;47.562;18.738;2023-07-20T00:29:01;99060.91;;;21.67;75.52
51245;BME280;37840;47.562;18.738;2023-07-20T00:31:27;99064.37;;;21.54;76.19
51245;BME280;37840;47.562;18.738;2023-07-20T00:33:54;99064.63;;;21.60;75.93
51245;BME280;37840;47.562;18.738;2023-07-20T00:36:20;99066.88;;;21.56;75.20
51245;BME280;37840;47.562;18.738;2023-07-20T00:38:46;99065.66;;;21.58;75.07
51245;BME280;37840;47.562;18.738;2023-07-20T00:41:12;99058.13;;;21.54;75.63
51245;BME280;37840;47.562;18.738;2023-07-20T00:43:38;99057.94;;;21.55;76.13
51245;BME280;37840;47.562;18.738;2023-07-20T00:46:04;99059.25;;;21.38;76.96
51245;BME280;37840;47.562;18.738;2023-07-20T00:48:31;99055.03;;;21.35;76.71
51245;BME280;37840;47.562;18.738;2023-07-20T00:50:59;99043.66;;;21.40;76.93
51245;BME280;37840;47.562;18.738;2023-07-20T00:53:26;99048.09;;;21.48;76.55
51245;BME280;37840;47.562;18.738;2023-07-20T00:55:52;99044.47;;;21.41;77.06
51245;BME280;37840;47.562;18.738;2023-07-20T00:58:18;99037.19;;;21.41;77.40
51245;BME280;37840;47.562;18.738;2023-07-20T01:00:44;99033.87;;;21.17;76.29
51245;BME280;37840;47.562;18.738;2023-07-20T01:03:10;99027.66;;;21.17;76.37
51245;BME280;37840;47.562;18.738;2023-07-20T01:06:03;99027.59;;;21.10;77.05
51245;BME280;37840;47.562;18.738;2023-07-20T01:08:43;99030.31;;;21.10;77.50
51245;BME280;37840;47.562;18.738;2023-07-20T01:11:16;99035.50;;;21.12;77.53
51245;BME280;37840;47.562;18.738;2023-07-20T01:13:46;99033.37;;;21.07;77.63
51245;BME280;37840;47.562;18.738;2023-07-20T01:16:12;99035.75;;;21.17;77.05
51245;BME280;37840;47.562;18.738;2023-07-20T01:18:38;99033.06;;;21.17;76.87
51245;BME280;37840;47.562;18.738;2023-07-20T01:21:18;99028.03;;;21.14;77.19
51245;BME280;37840;47.562;18.738;2023-07-20T01:23:52;99037.94;;;21.07;77.89
51245;BME280;37840;47.562;18.738;2023-07-20T01:32:06;99026.31;;;21.06;78.39
51245;BME280;37840;47.562;18.738;2023-07-20T01:34:35;99031.13;;;21.11;78.38
51245;BME280;37840;47.562;18.738;2023-07-20T01:37:03;99030.94;;;21.12;78.79
51245;BME280;37840;47.562;18.738;2023-07-20T01:39:30;99035.31;;;21.13;78.65
51245;BME280;37840;47.562;18.738;2023-07-20T01:41:57;99028.38;;;21.04;79.13
51245;BME280;37840;47.562;18.738;2023-07-20T01:44:23;99043.53;;;21.05;79.49
51245;BME280;37840;47.562;18.738;2023-07-20T01:46:49;99040.16;;;20.96;79.02
51245;BME280;37840;47.562;18.738;2023-07-20T01:49:15;99042.97;;;20.88;78.42
51245;BME280;37840;47.562;18.738;2023-07-20T01:51:41;99050.94;;;20.75;78.55
51245;BME280;37840;47.562;18.738;2023-07-20T01:54:07;99046.31;;;20.69;79.08
51245;BME280;37840;47.562;18.738;2023-07-20T01:56:33;99051.72;;;20.69;79.22
51245;BME280;37840;47.562;18.738;2023-07-20T01:58:59;99049.66;;;20.71;79.49
51245;BME280;37840;47.562;18.738;2023-07-20T02:01:25;99054.22;;;20.70;79.67
51245;BME280;37840;47.562;18.738;2023-07-20T02:03:51;99061.09;;;20.73;79.55
51245;BME280;37840;47.562;18.738;2023-07-20T02:06:17;99066.44;;;20.66;79.52
51245;BME280;37840;47.562;18.738;2023-07-20T02:08:43;99075.19;;;20.68;79.86
51245;BME280;37840;47.562;18.738;2023-07-20T02:11:08;99084.25;;;20.61;79.84
51245;BME280;37840;47.562;18.738;2023-07-20T02:13:35;99076.41;;;20.66;80.06
51245;BME280;37840;47.562;18.738;2023-07-20T02:16:01;99079.47;;;20.63;80.37
51245;BME280;37840;47.562;18.738;2023-07-20T02:18:27;99087.22;;;20.66;80.50
51245;BME280;37840;47.562;18.738;2023-07-20T02:20:54;99094.47;;;20.65;80.92
51245;BME280;37840;47.562;18.738;2023-07-20T02:23:20;99091.59;;;20.67;81.35
51245;BME280;37840;47.562;18.738;2023-07-20T02:25:46;99093.94;;;20.70;81.25
51245;BME280;37840;47.562;18.738;2023-07-20T02:28:13;99092.81;;;20.64;81.89
51245;BME280;37840;47.562;18.738;2023-07-20T02:30:40;99095.50;;;20.64;81.81
51245;BME280;37840;47.562;18.738;2023-07-20T02:33:06;99099.03;;;20.65;81.29
51245;BME280;37840;47.562;18.738;2023-07-20T02:35:32;99099.03;;;20.65;81.42
51245;BME280;37840;47.562;18.738;2023-07-20T02:37:59;99097.62;;;20.69;80.88
51245;BME280;37840;47.562;18.738;2023-07-20T02:40:25;99096.81;;;20.68;80.48
51245;BME280;37840;47.562;18.738;2023-07-20T02:42:50;99091.66;;;20.73;80.20
51245;BME280;37840;47.562;18.738;2023-07-20T02:45:16;99092.13;;;20.77;80.34
51245;BME280;37840;47.562;18.738;2023-07-20T02:47:42;99097.53;;;20.77;80.43
51245;BME280;37840;47.562;18.738;2023-07-20T02:50:08;99099.19;;;20.78;80.74
51245;BME280;37840;47.562;18.738;2023-07-20T02:52:35;99092.88;;;20.71;80.70
51245;BME280;37840;47.562;18.738;2023-07-20T02:55:00;99100.59;;;20.74;80.29
51245;BME280;37840;47.562;18.738;2023-07-20T02:57:26;99105.06;;;20.82;79.73
51245;BME280;37840;47.562;18.738;2023-07-20T02:59:52;99103.25;;;20.89;79.33
51245;BME280;37840;47.562;18.738;2023-07-20T03:02:19;99106.88;;;20.96;79.15
51245;BME280;37840;47.562;18.738;2023-07-20T03:04:45;99107.59;;;21.05;78.60
51245;BME280;37840;47.562;18.738;2023-07-20T03:07:11;99108.69;;;21.10;77.75
51245;BME280;37840;47.562;18.738;2023-07-20T03:09:37;99116.87;;;21.17;77.52
51245;BME280;37840;47.562;18.738;2023-07-20T03:12:03;99112.13;;;21.19;76.87
51245;BME280;37840;47.562;18.738;2023-07-20T03:14:30;99108.81;;;21.24;76.78
51245;BME280;37840;47.562;18.738;2023-07-20T03:16:56;99115.94;;;21.31;76.18
51245;BME280;37840;47.562;18.738;2023-07-20T03:19:22;99118.09;;;21.36;75.91
51245;BME280;37840;47.562;18.738;2023-07-20T03:21:48;99125.63;;;21.41;75.42
51245;BME280;37840;47.562;18.738;2023-07-20T03:24:14;99118.19;;;21.43;75.15
51245;BME280;37840;47.562;18.738;2023-07-20T03:26:40;99120.12;;;21.49;75.18
51245;BME280;37840;47.562;18.738;2023-07-20T03:29:06;99117.00;;;21.52;75.17
51245;BME280;37840;47.562;18.738;2023-07-20T03:31:32;99125.75;;;21.54;75.11
51245;BME280;37840;47.562;18.738;2023-07-20T03:33:58;99122.03;;;21.55;75.22
51245;BME280;37840;47.562;18.738;2023-07-20T03:36:24;99117.31;;;21.64;74.72
51245;BME280;37840;47.562;18.738;2023-07-20T03:38:50;99125.63;;;21.62;74.66
51245;BME280;37840;47.562;18.738;2023-07-20T03:41:16;99117.09;;;21.65;74.36
51245;BME280;37840;47.562;18.738;2023-07-20T03:43:42;99119.63;;;21.67;74.20
51245;BME280;37840;47.562;18.738;2023-07-20T03:46:08;99117.37;;;21.70;73.98
51245;BME280;37840;47.562;18.738;2023-07-20T03:48:34;99127.16;;;21.71;73.32
51245;BME280;37840;47.562;18.738;2023-07-20T03:51:00;99135.72;;;21.75;72.25
51245;BME280;37840;47.562;18.738;2023-07-20T03:53:26;99131.78;;;21.77;71.52
51245;BME280;37840;47.562;18.738;2023-07-20T03:55:53;99131.13;;;21.75;70.87
51245;BME280;37840;47.562;18.738;2023-07-20T03:58:19;99137.00;;;21.79;70.34
51245;BME280;37840;47.562;18.738;2023-07-20T04:00:46;99143.50;;;21.85;70.16
51245;BME280;37840;47.562;18.738;2023-07-20T04:03:14;99137.44;;;21.83;69.55
51245;BME280;37840;47.562;18.738;2023-07-20T04:05:40;99137.84;;;21.79;69.84
51245;BME280;37840;47.562;18.738;2023-07-20T04:08:06;99127.00;;;21.79;69.55
51245;BME280;37840;47.562;18.738;2023-07-20T04:10:32;99130.53;;;21.80;69.54
51245;BME280;37840;47.562;18.738;2023-07-20T04:12:58;99129.34;;;21.83;69.64
51245;BME280;37840;47.562;18.738;2023-07-20T04:15:23;99127.28;;;21.85;69.44
51245;BME280;37840;47.562;18.738;2023-07-20T04:17:50;99135.13;;;21.79;69.14
51245;BME280;37840;47.562;18.738;2023-07-20T04:20:16;99143.25;;;21.79;68.47
51245;BME280;37840;47.562;18.738;2023-07-20T04:22:44;99137.66;;;21.81;68.24
51245;BME280;37840;47.562;18.738;2023-07-20T04:25:10;99130.34;;;21.82;67.71
51245;BME280;37840;47.562;18.738;2023-07-20T04:27:36;99134.34;;;21.86;67.01
51245;BME280;37840;47.562;18.738;2023-07-20T04:30:02;99128.12;;;21.92;66.69
51245;BME280;37840;47.562;18.738;2023-07-20T04:32:29;99126.91;;;21.94;66.18
51245;BME280;37840;47.562;18.738;2023-07-20T04:34:56;99128.19;;;21.98;65.29
51245;BME280;37840;47.562;18.738;2023-07-20T04:37:22;99121.16;;;22.04;64.77
51245;BME280;37840;47.562;18.738;2023-07-20T04:39:48;99122.00;;;22.11;64.49
51245;BME280;37840;47.562;18.738;2023-07-20T04:42:13;99126.00;;;22.15;63.80
51245;BME280;37840;47.562;18.738;2023-07-20T04:44:39;99133.81;;;22.25;63.60
51245;BME280;37840;47.562;18.738;2023-07-20T04:47:05;99139.25;;;22.32;63.22
51245;BME280;37840;47.562;18.738;2023-07-20T04:49:31;99136.59;;;22.38;62.59
51245;BME280;37840;47.562;18.738;2023-07-20T04:51:57;99141.41;;;22.43;62.43
51245;BME280;37840;47.562;18.738;2023-07-20T04:54:23;99132.66;;;22.48;62.62
51245;BME280;37840;47.562;18.738;2023-07-20T04:56:53;99127.88;;;22.50;62.57
51245;BME280;37840;47.562;18.738;2023-07-20T04:59:19;99129.56;;;22.51;62.42
51245;BME280;37840;47.562;18.738;2023-07-20T05:01:45;99126.06;;;22.57;62.47
51245;BME280;37840;47.562;18.738;2023-07-20T05:04:11;99132.09;;;22.59;62.33
51245;BME280;37840;47.562;18.738;2023-07-20T05:06:37;99130.63;;;22.63;62.18
51245;BME280;37840;47.562;18.738;2023-07-20T05:09:04;99131.72;;;22.69;62.18
51245;BME280;37840;47.562;18.738;2023-07-20T05:11:32;99131.09;;;22.73;61.81
51245;BME280;37840;47.562;18.738;2023-07-20T05:13:59;99129.84;;;22.76;61.72
51245;BME280;37840;47.562;18.738;2023-07-20T05:16:26;99133.00;;;22.79;61.26
51245;BME280;37840;47.562;18.738;2023-07-20T05:18:52;99136.97;;;22.84;61.02
51245;BME280;37840;47.562;18.738;2023-07-20T05:21:18;99140.53;;;22.91;60.68
51245;BME280;37840;47.562;18.738;2023-07-20T05:23:44;99147.22;;;22.95;60.51
51245;BME280;37840;47.562;18.738;2023-07-20T05:26:10;99150.00;;;23.02;60.34
51245;BME280;37840;47.562;18.738;2023-07-20T05:28:36;99152.09;;;23.06;60.14
51245;BME280;37840;47.562;18.738;2023-07-20T05:31:03;99154.00;;;23.12;60.64
51245;BME280;37840;47.562;18.738;2023-07-20T05:33:29;99154.84;;;23.19;60.59
51245;BME280;37840;47.562;18.738;2023-07-20T05:35:54;99155.06;;;23.25;60.29
51245;BME280;37840;47.562;18.738;2023-07-20T05:38:20;99137.97;;;23.37;60.48
51245;BME280;37840;47.562;18.738;2023-07-20T05:40:46;99138.81;;;23.51;60.50
51245;BME280;37840;47.562;18.738;2023-07-20T05:43:12;99139.87;;;23.64;60.38
51245;BME280;37840;47.562;18.738;2023-07-20T05:45:43;99134.66;;;23.69;60.10
51245;BME280;37840;47.562;18.738;2023-07-20T05:48:10;99136.12;;;23.78;57.95
51245;BME280;37840;47.562;18.738;2023-07-20T05:50:43;99143.44;;;23.77;58.79
51245;BME280;37840;47.562;18.738;2023-07-20T05:53:11;99142.59;;;23.84;58.51
51245;BME280;37840;47.562;18.738;2023-07-20T05:55:37;99141.97;;;23.88;58.03
51245;BME280;37840;47.562;18.738;2023-07-20T05:58:05;99153.22;;;24.05;57.87
51245;BME280;37840;47.562;18.738;2023-07-20T06:00:31;99153.63;;;24.15;57.10
51245;BME280;37840;47.562;18.738;2023-07-20T06:02:57;99146.75;;;24.19;57.09
51245;BME280;37840;47.562;18.738;2023-07-20T06:05:23;99164.09;;;24.25;58.16
51245;BME280;37840;47.562;18.738;2023-07-20T06:07:49;99172.22;;;24.25;57.83
51245;BME280;37840;47.562;18.738;2023-07-20T06:10:15;99162.19;;;24.32;57.15
51245;BME280;37840;47.562;18.738;2023-07-20T06:12:41;99160.72;;;24.36;57.21
51245;BME280;37840;47.562;18.738;2023-07-20T06:15:24;99161.72;;;24.35;57.58
51245;BME280;37840;47.562;18.738;2023-07-20T06:17:51;99162.97;;;24.39;56.27
51245;BME280;37840;47.562;18.738;2023-07-20T06:20:17;99166.75;;;24.52;55.63
51245;BME280;37840;47.562;18.738;2023-07-20T06:22:44;99169.66;;;24.64;54.10
51245;BME280;37840;47.562;18.738;2023-07-20T06:25:11;99169.22;;;24.67;54.69
51245;BME280;37840;47.562;18.738;2023-07-20T06:27:37;99183.00;;;24.72;53.77
51245;BME280;37840;47.562;18.738;2023-07-20T06:30:03;99190.94;;;24.73;53.19
51245;BME280;37840;47.562;18.738;2023-07-20T06:32:29;99189.69;;;24.76;53.76
51245;BME280;37840;47.562;18.738;2023-07-20T06:34:55;99196.75;;;24.83;53.65
51245;BME280;37840;47.562;18.738;2023-07-20T06:37:21;99202.78;;;24.92;53.75
51245;BME280;37840;47.562;18.738;2023-07-20T06:39:46;99206.34;;;24.99;53.95
51245;BME280;37840;47.562;18.738;2023-07-20T06:42:12;99211.75;;;25.06;52.67
51245;BME280;37840;47.562;18.738;2023-07-20T06:44:39;99208.56;;;25.09;52.00
51245;BME280;37840;47.562;18.738;2023-07-20T06:47:05;99213.16;;;25.15;53.55
51245;BME280;37840;47.562;18.738;2023-07-20T06:49:31;99205.59;;;25.17;51.98
51245;BME280;37840;47.562;18.738;2023-07-20T06:51:57;99216.28;;;25.19;53.50
51245;BME280;37840;47.562;18.738;2023-07-20T06:54:23;99213.97;;;25.29;51.91
51245;BME280;37840;47.562;18.738;2023-07-20T06:56:49;99217.69;;;25.35;52.52
51245;BME280;37840;47.562;18.738;2023-07-20T06:59:14;99226.66;;;25.42;52.84
51245;BME280;37840;47.562;18.738;2023-07-20T07:01:40;99219.28;;;25.49;53.29
51245;BME280;37840;47.562;18.738;2023-07-20T07:04:06;99218.19;;;25.57;51.55
51245;BME280;37840;47.562;18.738;2023-07-20T07:06:32;99222.16;;;25.61;51.57
51245;BME280;37840;47.562;18.738;2023-07-20T07:08:58;99221.25;;;25.67;51.69
51245;BME280;37840;47.562;18.738;2023-07-20T07:11:24;99226.25;;;25.70;51.58
51245;BME280;37840;47.562;18.738;2023-07-20T07:13:50;99224.56;;;25.76;50.71
51245;BME280;37840;47.562;18.738;2023-07-20T07:16:17;99213.22;;;25.79;49.41
51245;BME280;37840;47.562;18.738;2023-07-20T07:18:45;99221.75;;;25.89;50.01
51245;BME280;37840;47.562;18.738;2023-07-20T07:21:11;99223.81;;;25.94;51.25
51245;BME280;37840;47.562;18.738;2023-07-20T07:23:38;99223.31;;;26.03;50.04
51245;BME280;37840;47.562;18.738;2023-07-20T07:26:04;99216.13;;;26.09;49.50
51245;BME280;37840;47.562;18.738;2023-07-20T07:28:30;99220.06;;;26.13;49.39
51245;BME280;37840;47.562;18.738;2023-07-20T07:30:57;99220.75;;;26.09;49.26
51245;BME280;37840;47.562;18.738;2023-07-20T07:33:23;99220.91;;;26.14;49.04
51245;BME280;37840;47.562;18.738;2023-07-20T07:35:50;99219.38;;;26.24;49.79
51245;BME280;37840;47.562;18.738;2023-07-20T07:38:19;99210.13;;;26.26;48.62
51245;BME280;37840;47.562;18.738;2023-07-20T07:40:45;99220.81;;;26.27;49.67
51245;BME280;37840;47.562;18.738;2023-07-20T07:43:12;99220.06;;;26.38;49.01
51245;BME280;37840;47.562;18.738;2023-07-20T07:45:40;99208.31;;;26.38;48.03
51245;BME280;37840;47.562;18.738;2023-07-20T07:48:06;99218.44;;;26.31;47.46
51245;BME280;37840;47.562;18.738;2023-07-20T07:50:33;99208.69;;;26.23;47.08
51245;BME280;37840;47.562;18.738;2023-07-20T07:53:00;99222.38;;;26.16;47.11
51245;BME280;37840;47.562;18.738;2023-07-20T07:55:25;99215.97;;;26.04;46.78
51245;BME280;37840;47.562;18.738;2023-07-20T07:57:54;99220.03;;;25.95;47.80
51245;BME280;37840;47.562;18.738;2023-07-20T08:00:23;99227.16;;;25.96;47.24
51245;BME280;37840;47.562;18.738;2023-07-20T08:02:50;99218.81;;;25.84;47.71
51245;BME280;37840;47.562;18.738;2023-07-20T08:05:16;99224.25;;;25.84;47.57
51245;BME280;37840;47.562;18.738;2023-07-20T08:07:43;99218.44;;;25.80;48.18
51245;BME280;37840;47.562;18.738;2023-07-20T08:10:09;99221.78;;;25.82;46.06
51245;BME280;37840;47.562;18.738;2023-07-20T08:12:35;99219.88;;;25.83;45.50
51245;BME280;37840;47.562;18.738;2023-07-20T08:15:01;99216.94;;;25.84;46.69
51245;BME280;37840;47.562;18.738;2023-07-20T08:17:28;99223.31;;;26.03;48.27
51245;BME280;37840;47.562;18.738;2023-07-20T08:19:53;99222.09;;;26.24;45.07
51245;BME280;37840;47.562;18.738;2023-07-20T08:22:19;99203.69;;;26.38;44.19
51245;BME280;37840;47.562;18.738;2023-07-20T08:24:45;99221.97;;;26.38;44.67
51245;BME280;37840;47.562;18.738;2023-07-20T08:27:11;99225.72;;;26.37;45.33
51245;BME280;37840;47.562;18.738;2023-07-20T08:29:37;99218.97;;;26.39;46.01
51245;BME280;37840;47.562;18.738;2023-07-20T08:32:04;99230.50;;;26.41;46.12
51245;BME280;37840;47.562;18.738;2023-07-20T08:34:31;99223.31;;;26.47;45.82
51245;BME280;37840;47.562;18.738;2023-07-20T08:36:57;99217.44;;;26.50;45.76
51245;BME280;37840;47.562;18.738;2023-07-20T08:39:24;99227.88;;;26.53;45.72
51245;BME280;37840;47.562;18.738;2023-07-20T08:41:50;99233.06;;;26.61;46.07
51245;BME280;37840;47.562;18.738;2023-07-20T08:44:17;99229.88;;;26.64;44.31
51245;BME280;37840;47.562;18.738;2023-07-20T08:46:43;99228.16;;;26.70;44.68
51245;BME280;37840;47.562;18.738;2023-07-20T08:49:11;99223.59;;;26.82;45.39
51245;BME280;37840;47.562;18.738;2023-07-20T08:51:38;99231.63;;;26.96;44.74
51245;BME280;37840;47.562;18.738;2023-07-20T08:54:06;99236.19;;;27.02;45.03
51245;BME280;37840;47.562;18.738;2023-07-20T08:56:33;99236.00;;;27.15;43.93
51245;BME280;37840;47.562;18.738;2023-07-20T08:59:00;99247.09;;;27.20;45.20
51245;BME280;37840;47.562;18.738;2023-07-20T09:01:28;99246.41;;;27.25;43.20
51245;BME280;37840;47.562;18.738;2023-07-20T09:03:56;99241.75;;;27.44;44.44
51245;BME280;37840;47.562;18.738;2023-07-20T09:06:22;99243.69;;;27.55;44.02
51245;BME280;37840;47.562;18.738;2023-07-20T09:08:48;99236.00;;;27.64;44.31
51245;BME280;37840;47.562;18.738;2023-07-20T09:11:14;99247.06;;;27.69;43.77
51245;BME280;37840;47.562;18.738;2023-07-20T09:13:40;99240.22;;;27.48;41.82
51245;BME280;37840;47.562;18.738;2023-07-20T09:16:06;99237.66;;;27.35;42.98
51245;BME280;37840;47.562;18.738;2023-07-20T09:18:32;99241.41;;;27.22;42.24
51245;BME280;37840;47.562;18.738;2023-07-20T09:21:04;99244.72;;;27.24;43.69
51245;BME280;37840;47.562;18.738;2023-07-20T09:23:36;99239.34;;;27.17;43.45
51245;BME280;37840;47.562;18.738;2023-07-20T09:26:12;99249.50;;;27.10;43.41
51245;BME280;37840;47.562;18.738;2023-07-20T09:28:49;99239.28;;;27.05;44.38
51245;BME280;37840;47.562;18.738;2023-07-20T09:31:18;99250.19;;;27.05;44.50
51245;BME280;37840;47.562;18.738;2023-07-20T09:33:45;99257.09;;;27.08;45.03
51245;BME280;37840;47.562;18.738;2023-07-20T09:36:11;99248.53;;;27.04;45.20
51245;BME280;37840;47.562;18.738;2023-07-20T09:38:38;99239.59;;;26.97;44.77
51245;BME280;37840;47.562;18.738;2023-07-20T09:41:05;99231.41;;;26.97;43.88
51245;BME280;37840;47.562;18.738;2023-07-20T09:43:33;99232.75;;;26.88;43.83
51245;BME280;37840;47.562;18.738;2023-07-20T09:46:00;99242.41;;;26.91;45.88
51245;BME280;37840;47.562;18.738;2023-07-20T09:48:26;99251.72;;;26.83;46.49
51245;BME280;37840;47.562;18.738;2023-07-20T09:50:53;99257.56;;;26.87;44.94
51245;BME280;37840;47.562;18.738;2023-07-20T09:53:20;99260.91;;;26.89;44.58
51245;BME280;37840;47.562;18.738;2023-07-20T09:55:47;99260.38;;;26.80;43.99
51245;BME280;37840;47.562;18.738;2023-07-20T09:58:14;99255.13;;;26.78;44.66
51245;BME280;37840;47.562;18.738;2023-07-20T10:00:41;99258.25;;;26.82;45.50
51245;BME280;37840;47.562;18.738;2023-07-20T10:03:16;99258.25;;;26.82;45.16
51245;BME280;37840;47.562;18.738;2023-07-20T10:05:48;99247.88;;;26.91;46.27
51245;BME280;37840;47.562;18.738;2023-07-20T10:08:18;99240.63;;;27.15;46.41
51245;BME280;37840;47.562;18.738;2023-07-20T10:10:46;99246.63;;;27.23;46.43
51245;BME280;37840;47.562;18.738;2023-07-20T10:13:17;99246.63;;;27.42;44.79
51245;BME280;37840;47.562;18.738;2023-07-20T10:15:50;99236.03;;;27.45;45.38
51245;BME280;37840;47.562;18.738;2023-07-20T10:18:46;99240.84;;;27.62;45.68
51245;BME280;37840;47.562;18.738;2023-07-20T10:21:17;99240.66;;;27.75;44.51
51245;BME280;37840;47.562;18.738;2023-07-20T10:23:43;99247.28;;;27.68;41.97
51245;BME280;37840;47.562;18.738;2023-07-20T10:26:10;99250.84;;;27.68;42.23
51245;BME280;37840;47.562;18.738;2023-07-20T10:28:38;99248.44;;;27.60;42.45
51245;BME280;37840;47.562;18.738;2023-07-20T10:31:04;99250.56;;;27.58;41.34
51245;BME280;37840;47.562;18.738;2023-07-20T10:33:31;99255.94;;;27.64;39.86
51245;BME280;37840;47.562;18.738;2023-07-20T10:36:03;99258.66;;;27.53;40.39
51245;BME280;37840;47.562;18.738;2023-07-20T10:43:50;99266.25;;;27.62;42.33
51245;BME280;37840;47.562;18.738;2023-07-20T10:46:44;99267.19;;;27.56;42.05
51245;BME280;37840;47.562;18.738;2023-07-20T10:49:11;99266.75;;;27.59;41.54
51245;BME280;37840;47.562;18.738;2023-07-20T10:51:48;99262.25;;;27.65;41.54
51245;BME280;37840;47.562;18.738;2023-07-20T10:56:47;99264.84;;;27.90;44.88
51245;BME280;37840;47.562;18.738;2023-07-20T10:59:18;99262.84;;;27.97;44.14
51245;BME280;37840;47.562;18.738;2023-07-20T11:01:48;99262.63;;;27.99;42.62
51245;BME280;37840;47.562;18.738;2023-07-20T11:04:17;99263.66;;;27.98;42.08
51245;BME280;37840;47.562;18.738;2023-07-20T11:06:46;99264.50;;;27.87;41.60
51245;BME280;37840;47.562;18.738;2023-07-20T11:09:22;99260.44;;;27.89;42.71
51245;BME280;37840;47.562;18.738;2023-07-20T11:11:48;99254.03;;;27.95;41.13
51245;BME280;37840;47.562;18.738;2023-07-20T11:14:22;99255.00;;;28.01;41.10
51245;BME280;37840;47.562;18.738;2023-07-20T11:16:49;99258.81;;;28.00;42.33
51245;BME280;37840;47.562;18.738;2023-07-20T11:19:24;99262.94;;;27.91;42.01
51245;BME280;37840;47.562;18.738;2023-07-20T11:21:57;99253.16;;;27.83;41.49
51245;BME280;37840;47.562;18.738;2023-07-20T11:24:23;99250.03;;;27.79;42.80
51245;BME280;37840;47.562;18.738;2023-07-20T11:26:51;99247.31;;;27.79;43.28
51245;BME280;37840;47.562;18.738;2023-07-20T11:29:19;99251.66;;;27.87;41.71
51245;BME280;37840;47.562;18.738;2023-07-20T11:31:46;99254.09;;;27.77;43.14
51245;BME280;37840;47.562;18.738;2023-07-20T11:34:17;99248.84;;;27.75;42.89
51245;BME280;37840;47.562;18.738;2023-07-20T11:36:48;99254.31;;;27.75;42.30
51245;BME280;37840;47.562;18.738;2023-07-20T11:39:16;99239.59;;;27.76;42.10
51245;BME280;37840;47.562;18.738;2023-07-20T11:41:50;99237.69;;;27.77;41.28
51245;BME280;37840;47.562;18.738;2023-07-20T11:44:17;99243.75;;;27.79;42.63
51245;BME280;37840;47.562;18.738;2023-07-20T11:46:44;99241.91;;;27.91;42.36
51245;BME280;37840;47.562;18.738;2023-07-20T11:49:11;99239.63;;;27.88;43.04
51245;BME280;37840;47.562;18.738;2023-07-20T11:51:39;99246.31;;;27.92;41.28
51245;BME280;37840;47.562;18.738;2023-07-20T11:54:07;99240.94;;;27.85;42.24
51245;BME280;37840;47.562;18.738;2023-07-20T11:56:34;99242.62;;;27.87;43.00
51245;BME280;37840;47.562;18.738;2023-07-20T11:59:00;99246.72;;;27.77;42.39
51245;BME280;37840;47.562;18.738;2023-07-20T12:01:28;99239.59;;;27.76;42.11
51245;BME280;37840;47.562;18.738;2023-07-20T12:03:57;99241.59;;;27.69;41.65
51245;BME280;37840;47.562;18.738;2023-07-20T12:06:26;99239.00;;;27.74;41.84
51245;BME280;37840;47.562;18.738;2023-07-20T12:08:56;99249.44;;;27.77;42.14
51245;BME280;37840;47.562;18.738;2023-07-20T12:11:36;99239.37;;;27.78;41.07
51245;BME280;37840;47.562;18.738;2023-07-20T12:14:03;99239.25;;;27.84;40.77
51245;BME280;37840;47.562;18.738;2023-07-20T12:16:30;99246.78;;;27.89;41.52
51245;BME280;37840;47.562;18.738;2023-07-20T12:19:07;99247.59;;;27.90;42.00
51245;BME280;37840;47.562;18.738;2023-07-20T12:21:34;99239.78;;;27.93;41.37
51245;BME280;37840;47.562;18.738;2023-07-20T12:24:03;99234.69;;;27.97;41.26
51245;BME280;37840;47.562;18.738;2023-07-20T12:26:30;99230.75;;;27.93;41.24
51245;BME280;37840;47.562;18.738;2023-07-20T12:28:56;99237.06;;;27.93;40.93
51245;BME280;37840;47.562;18.738;2023-07-20T12:31:22;99235.03;;;28.00;41.35
51245;BME280;37840;47.562;18.738;2023-07-20T12:33:50;99239.78;;;28.05;41.99
51245;BME280;37840;47.562;18.738;2023-07-20T12:36:17;99227.91;;;28.11;40.55
51245;BME280;37840;47.562;18.738;2023-07-20T12:38:44;99221.50;;;28.05;39.83
51245;BME280;37840;47.562;18.738;2023-07-20T12:41:11;99224.84;;;28.08;39.25
51245;BME280;37840;47.562;18.738;2023-07-20T12:43:41;99227.47;;;28.14;38.57
51245;BME280;37840;47.562;18.738;2023-07-20T12:46:08;99221.03;;;28.20;38.02
51245;BME280;37840;47.562;18.738;2023-07-20T12:48:36;99220.34;;;28.25;38.73
51245;BME280;37840;47.562;18.738;2023-07-20T12:51:08;99219.38;;;28.19;37.90
51245;BME280;37840;47.562;18.738;2023-07-20T12:53:34;99213.19;;;28.24;37.85
51245;BME280;37840;47.562;18.738;2023-07-20T12:56:00;99218.31;;;28.20;38.34
51245;BME280;37840;47.562;18.738;2023-07-20T12:58:26;99202.03;;;28.14;39.21
51245;BME280;37840;47.562;18.738;2023-07-20T13:00:53;99207.94;;;28.11;40.11
51245;BME280;37840;47.562;18.738;2023-07-20T13:03:19;99205.94;;;28.18;39.40
51245;BME280;37840;47.562;18.738;2023-07-20T13:05:48;99207.38;;;28.20;38.81